createdAt,value
2017-12-06T00:01:49.227Z,101125.70
2017-12-06T00:04:15.705Z,101123.55
2017-12-06T00:06:42.065Z,101128.97
2017-12-06T00:09:10.221Z,101127.03
2017-12-06T00:11:36.595Z,101120.34
2017-12-06T00:14:08.987Z,101131.47
2017-12-06T00:16:35.293Z,101131.27
2017-12-06T00:19:01.560Z,101138.22
2017-12-06T00:21:28.593Z,101138.19
2017-12-06T00:23:54.922Z,101139.36
2017-12-06T00:26:21.241Z,101144.90
2017-12-06T00:28:48.417Z,101138.20
2017-12-06T00:31:15.471Z,101125.52
2017-12-06T00:33:41.766Z,101120.22
2017-12-06T00:36:08.098Z,101124.02
2017-12-06T00:38:34.399Z,101124.30
2017-12-06T00:41:01.412Z,101121.11
2017-12-06T00:43:29.277Z,101120.79
2017-12-06T00:45:55.572Z,101120.24
2017-12-06T00:48:22.906Z,101115.72
2017-12-06T00:50:49.260Z,101126.29
2017-12-06T00:53:15.591Z,101121.89
2017-12-06T00:55:41.906Z,101118.63
2017-12-06T00:58:08.248Z,101115.69
2017-12-06T01:00:44.662Z,101114.84
2017-12-06T01:03:10.944Z,101087.58
2017-12-06T01:05:37.242Z,101103.50
2017-12-06T01:08:03.518Z,101115.71
2017-12-06T01:10:29.782Z,101107.73
2017-12-06T01:12:56.096Z,101118.33
2017-12-06T01:15:23.352Z,101118.98
2017-12-06T01:17:50.409Z,101121.16
2017-12-06T01:20:16.709Z,101124.25
2017-12-06T01:22:43.022Z,101118.04
2017-12-06T01:25:09.861Z,101116.05
2017-12-06T01:27:36.177Z,101124.39
2017-12-06T01:30:03.489Z,101124.95
2017-12-06T01:32:29.817Z,101112.45
2017-12-06T01:34:56.106Z,101124.84
2017-12-06T01:37:22.377Z,101119.26
2017-12-06T01:39:48.651Z,101125.69
2017-12-06T01:42:14.969Z,101126.48
2017-12-06T01:44:41.283Z,101124.98
2017-12-06T01:47:07.957Z,101111.75
2017-12-06T01:49:34.990Z,101112.12
2017-12-06T01:52:01.348Z,101121.33
2017-12-06T01:54:27.661Z,101092.67
2017-12-06T01:56:53.966Z,101115.15
2017-12-06T01:59:20.318Z,101098.52
2017-12-06T02:01:46.642Z,101103.44
2017-12-06T02:04:12.980Z,101105.96
2017-12-06T02:06:39.344Z,101091.77
2017-12-06T02:09:05.641Z,101100.78
2017-12-06T02:11:31.890Z,101107.98
2017-12-06T02:13:58.264Z,101097.97
2017-12-06T02:16:24.520Z,101100.70
2017-12-06T02:18:50.823Z,101102.47
2017-12-06T02:21:17.068Z,101094.77
2017-12-06T02:23:43.349Z,101101.59
2017-12-06T02:26:09.644Z,101089.25
2017-12-06T02:28:35.949Z,101095.59
2017-12-06T02:31:02.221Z,101102.11
2017-12-06T02:33:29.256Z,101096.62
2017-12-06T02:35:55.523Z,101102.45
2017-12-06T02:38:21.815Z,101096.30
2017-12-06T02:41:06.658Z,101083.16
2017-12-06T02:46:41.901Z,101086.61
2017-12-06T02:49:08.216Z,101089.29
2017-12-06T02:51:34.516Z,101079.23
2017-12-06T02:54:01.541Z,101084.80
2017-12-06T02:56:27.849Z,101071.02
2017-12-06T02:58:54.120Z,101063.81
2017-12-06T03:01:21.176Z,101080.78
2017-12-06T03:03:48.270Z,101068.48
2017-12-06T03:06:14.629Z,101069.80
2017-12-06T03:08:41.735Z,101068.73
2017-12-06T03:11:08.095Z,101074.82
2017-12-06T03:13:34.439Z,101064.88
2017-12-06T03:16:00.757Z,101069.64
2017-12-06T03:18:27.084Z,101065.92
2017-12-06T03:20:53.393Z,101064.23
2017-12-06T03:23:19.725Z,101063.48
2017-12-06T03:25:46.056Z,101066.55
2017-12-06T03:28:12.345Z,101064.78
2017-12-06T03:30:38.657Z,101068.09
2017-12-06T03:33:05.018Z,101062.81
2017-12-06T03:35:32.080Z,101062.09
2017-12-06T03:37:58.534Z,101066.63
2017-12-06T03:40:24.925Z,101058.88
2017-12-06T03:42:51.993Z,101071.39
2017-12-06T03:45:18.339Z,101070.00
2017-12-06T03:47:44.710Z,101065.81
2017-12-06T03:50:11.075Z,101066.89
2017-12-06T03:52:38.096Z,101074.37
2017-12-06T03:55:05.423Z,101077.80
2017-12-06T03:57:31.731Z,101065.97
2017-12-06T03:59:58.053Z,101063.63
2017-12-06T04:02:24.361Z,101058.53
2017-12-06T04:04:58.430Z,101040.92
2017-12-06T04:07:25.348Z,101054.79
2017-12-06T04:09:52.412Z,101052.49
2017-12-06T04:12:18.704Z,101057.22
2017-12-06T04:14:45.777Z,101064.67
2017-12-06T04:17:12.111Z,101052.04
2017-12-06T04:19:38.404Z,101050.17
2017-12-06T04:22:05.419Z,101047.73
2017-12-06T04:24:31.764Z,101036.73
2017-12-06T04:26:58.111Z,101048.87
2017-12-06T04:29:25.187Z,101041.47
2017-12-06T04:31:51.521Z,101030.09
2017-12-06T04:34:17.904Z,101036.06
2017-12-06T04:36:44.245Z,101038.20
2017-12-06T04:39:10.662Z,101034.23
2017-12-06T04:41:37.019Z,101028.69
2017-12-06T04:44:03.475Z,101034.98
2017-12-06T04:46:30.627Z,101020.00
2017-12-06T04:48:56.932Z,101027.67
2017-12-06T04:51:23.307Z,101009.79
2017-12-06T04:53:49.644Z,101016.45
2017-12-06T04:56:17.156Z,101016.17
2017-12-06T04:58:43.562Z,101003.98
2017-12-06T05:01:09.891Z,101009.82
2017-12-06T05:03:36.272Z,101010.00
2017-12-06T05:06:03.331Z,101010.00
2017-12-06T05:08:29.722Z,101010.70
2017-12-06T05:13:29.271Z,101007.11
2017-12-06T05:15:56.307Z,100998.78
2017-12-06T05:18:22.668Z,101011.03
2017-12-06T05:20:48.966Z,101003.52
2017-12-06T05:23:15.359Z,101009.19
2017-12-06T05:25:41.678Z,101016.92
2017-12-06T05:28:08.620Z,101008.33
2017-12-06T05:30:35.087Z,101022.77
2017-12-06T05:33:01.480Z,101016.52
2017-12-06T05:35:27.844Z,101025.49
2017-12-06T05:37:54.970Z,101025.38
2017-12-06T05:40:21.344Z,101018.41
2017-12-06T05:42:47.895Z,101023.17
2017-12-06T05:45:14.465Z,101026.77
2017-12-06T05:47:40.939Z,101024.42
2017-12-06T05:50:07.252Z,101023.91
2017-12-06T05:52:33.609Z,101025.30
2017-12-06T05:54:59.962Z,101029.27
2017-12-06T05:57:26.347Z,101038.95
2017-12-06T05:59:52.664Z,101032.52
2017-12-06T06:02:18.967Z,101028.41
2017-12-06T06:04:46.275Z,101029.69
2017-12-06T06:07:12.625Z,101029.55
2017-12-06T06:09:38.989Z,101028.81
2017-12-06T06:12:06.096Z,101023.20
2017-12-06T06:14:32.486Z,101027.53
2017-12-06T06:16:58.904Z,100999.91
2017-12-06T06:19:25.277Z,101013.84
2017-12-06T06:21:52.704Z,101018.70
2017-12-06T06:24:19.298Z,101014.51
2017-12-06T06:26:45.768Z,101026.80
2017-12-06T06:29:12.238Z,101019.15
2017-12-06T06:31:38.528Z,101022.35
2017-12-06T06:34:05.619Z,101024.03
2017-12-06T06:36:31.979Z,101023.59
2017-12-06T06:38:58.319Z,101016.91
2017-12-06T06:41:24.673Z,101014.98
2017-12-06T06:43:50.977Z,101022.09
2017-12-06T06:46:17.279Z,101029.77
2017-12-06T06:48:43.625Z,101029.08
2017-12-06T06:51:10.003Z,101030.61
2017-12-06T06:53:36.439Z,101031.50
2017-12-06T06:56:02.765Z,101028.75
2017-12-06T06:58:29.816Z,101036.59
2017-12-06T07:00:56.145Z,101023.88
2017-12-06T07:03:23.758Z,101029.47
2017-12-06T07:05:50.866Z,101028.33
2017-12-06T07:08:17.218Z,101018.20
2017-12-06T07:10:43.559Z,101019.09
2017-12-06T07:13:09.900Z,101016.88
2017-12-06T07:15:36.284Z,101018.27
2017-12-06T07:18:03.324Z,101021.88
2017-12-06T07:20:29.661Z,101024.50
2017-12-06T07:22:56.705Z,101030.95
2017-12-06T07:25:23.892Z,101027.47
2017-12-06T07:27:50.254Z,101032.61
2017-12-06T07:30:16.632Z,101032.09
2017-12-06T07:32:43.029Z,101046.06
2017-12-06T07:35:09.413Z,101025.61
2017-12-06T07:37:35.753Z,101026.94
2017-12-06T07:40:02.191Z,101035.12
2017-12-06T07:42:28.613Z,101034.19
2017-12-06T07:44:54.995Z,101024.67
2017-12-06T07:47:21.491Z,101045.67
2017-12-06T07:49:47.844Z,101043.91
2017-12-06T07:52:14.195Z,101037.20
2017-12-06T07:54:41.398Z,101053.00
2017-12-06T07:57:07.728Z,101051.23
2017-12-06T07:59:34.030Z,101046.38
2017-12-06T08:02:01.105Z,101056.95
2017-12-06T08:04:27.446Z,101064.22
2017-12-06T08:06:53.811Z,101054.93
2017-12-06T08:09:20.897Z,101052.66
2017-12-06T08:11:47.313Z,101059.38
2017-12-06T08:14:14.349Z,101065.52
2017-12-06T08:16:40.720Z,101071.44
2017-12-06T08:19:07.257Z,101070.17
2017-12-06T08:21:33.777Z,101067.57
2017-12-06T08:24:00.081Z,101067.53
2017-12-06T08:26:26.430Z,101071.37
2017-12-06T08:28:53.613Z,101058.47
2017-12-06T08:31:20.004Z,101062.95
2017-12-06T08:33:46.432Z,101061.22
2017-12-06T08:36:12.788Z,101054.65
2017-12-06T08:38:40.017Z,101055.67
2017-12-06T08:41:06.398Z,101054.65
2017-12-06T08:43:32.730Z,101049.71
2017-12-06T08:45:59.042Z,101054.00
2017-12-06T08:48:25.649Z,101056.29
2017-12-06T08:50:52.804Z,101060.77
2017-12-06T08:53:19.240Z,101058.95
2017-12-06T08:55:45.602Z,101063.72
2017-12-06T08:58:11.976Z,101069.34
2017-12-06T09:00:38.366Z,101074.41
2017-12-06T09:03:05.009Z,101075.08
2017-12-06T09:05:31.449Z,101078.39
2017-12-06T09:07:57.826Z,101074.14
2017-12-06T09:10:24.619Z,101073.80
2017-12-06T09:12:50.983Z,101073.04
2017-12-06T09:15:17.319Z,101068.81
2017-12-06T09:17:44.403Z,101072.47
2017-12-06T09:20:10.893Z,101070.11
2017-12-06T09:22:38.187Z,101072.81
2017-12-06T09:25:05.372Z,101076.34
2017-12-06T09:27:31.925Z,101069.36
2017-12-06T09:29:59.258Z,101067.38
2017-12-06T09:32:25.686Z,101075.95
2017-12-06T09:34:52.939Z,101065.81
2017-12-06T09:37:20.198Z,101072.20
2017-12-06T09:39:47.332Z,101072.93
2017-12-06T09:42:13.686Z,101067.71
2017-12-06T09:44:40.102Z,101072.86
2017-12-06T09:47:07.229Z,101075.44
2017-12-06T09:49:34.019Z,101084.77
2017-12-06T09:52:00.528Z,101080.80
2017-12-06T09:54:26.961Z,101077.61
2017-12-06T09:56:53.368Z,101073.63
2017-12-06T09:59:19.788Z,101073.57
2017-12-06T10:01:47.076Z,101074.47
2017-12-06T10:04:13.565Z,101075.59
2017-12-06T10:06:39.987Z,101077.08
2017-12-06T10:09:06.345Z,101075.19
2017-12-06T10:11:32.784Z,101078.11
2017-12-06T10:14:00.013Z,101070.36
2017-12-06T10:16:26.328Z,101073.03
2017-12-06T10:18:52.784Z,101064.70
2017-12-06T10:21:19.160Z,101059.94
2017-12-06T10:23:45.516Z,101069.02
2017-12-06T10:26:11.886Z,101062.55
2017-12-06T10:28:38.254Z,101058.59
2017-12-06T10:31:05.340Z,101070.87
2017-12-06T10:33:31.734Z,101058.90
2017-12-06T10:35:58.198Z,101053.17
2017-12-06T10:38:25.662Z,101057.51
2017-12-06T10:40:52.267Z,101055.66
2017-12-06T10:43:19.000Z,101044.42
2017-12-06T10:45:46.367Z,101052.24
2017-12-06T10:48:13.097Z,101041.19
2017-12-06T10:50:40.205Z,101046.17
2017-12-06T10:53:06.697Z,101049.23
2017-12-06T10:55:33.751Z,101047.72
2017-12-06T10:58:00.201Z,101045.12
2017-12-06T11:00:26.537Z,101036.59
2017-12-06T11:02:53.003Z,101040.56
2017-12-06T11:05:19.376Z,101028.03
2017-12-06T11:07:46.534Z,101033.19
2017-12-06T11:10:13.010Z,101034.42
2017-12-06T11:12:39.392Z,101022.31
2017-12-06T11:15:06.468Z,101027.66
2017-12-06T11:17:32.874Z,101021.30
2017-12-06T11:19:59.272Z,101018.88
2017-12-06T11:22:25.652Z,101021.78
2017-12-06T11:24:52.076Z,101020.96
2017-12-06T11:27:18.582Z,101022.23
2017-12-06T11:29:44.958Z,101029.25
2017-12-06T11:32:11.751Z,101022.84
2017-12-06T11:34:38.096Z,101017.70
2017-12-06T11:37:05.241Z,101023.42
2017-12-06T11:39:31.736Z,101021.39
2017-12-06T11:41:58.947Z,101018.62
2017-12-06T11:44:26.025Z,101027.34
2017-12-06T11:46:52.427Z,101019.20
2017-12-06T11:49:19.547Z,101015.44
2017-12-06T11:51:45.927Z,101014.75
2017-12-06T11:54:12.337Z,101017.19
2017-12-06T11:56:39.582Z,101006.16
2017-12-06T11:59:06.028Z,101015.19
2017-12-06T12:01:34.147Z,101015.90
2017-12-06T12:04:07.496Z,101000.03
2017-12-06T12:06:34.656Z,101004.48
2017-12-06T12:09:00.980Z,101002.86
2017-12-06T12:11:27.313Z,100996.03
2017-12-06T12:13:53.746Z,100994.39
2017-12-06T12:16:20.087Z,101002.70
2017-12-06T12:18:46.482Z,101001.03
2017-12-06T12:21:12.918Z,101004.00
2017-12-06T12:23:39.530Z,101012.64
2017-12-06T12:26:05.923Z,101002.48
2017-12-06T12:28:32.377Z,100997.06
2017-12-06T12:30:58.764Z,100997.95
2017-12-06T12:33:25.206Z,101000.55
2017-12-06T12:35:52.261Z,101000.17
2017-12-06T12:38:18.682Z,100995.48
2017-12-06T12:40:45.784Z,100993.67
2017-12-06T12:43:12.213Z,100994.50
2017-12-06T12:45:40.434Z,100997.24
2017-12-06T12:48:06.749Z,101025.84
2017-12-06T12:50:33.097Z,100990.95
2017-12-06T12:52:59.435Z,100995.63
2017-12-06T12:55:26.509Z,100994.66
2017-12-06T12:57:52.840Z,101000.64
2017-12-06T13:00:19.318Z,100992.20
2017-12-06T13:02:45.763Z,100988.44
2017-12-06T13:05:12.936Z,100989.89
2017-12-06T13:07:40.072Z,100983.11
2017-12-06T13:10:06.390Z,100989.63
2017-12-06T13:12:32.886Z,100970.55
2017-12-06T13:14:59.304Z,100990.08
2017-12-06T13:17:25.661Z,100973.36
2017-12-06T13:19:52.044Z,100988.05
2017-12-06T13:22:18.474Z,100976.71
2017-12-06T13:24:45.624Z,100974.58
2017-12-06T13:27:12.611Z,100978.03
2017-12-06T13:29:39.095Z,100975.84
2017-12-06T13:32:05.436Z,100970.50
2017-12-06T13:34:31.964Z,100960.30
2017-12-06T13:36:58.289Z,100974.73
2017-12-06T13:39:24.661Z,100968.82
2017-12-06T13:41:51.805Z,100975.89
2017-12-06T13:44:20.426Z,100969.58
2017-12-06T13:46:46.759Z,100971.43
2017-12-06T13:49:13.123Z,100983.27
2017-12-06T13:51:39.464Z,100978.74
2017-12-06T13:54:05.858Z,100980.89
2017-12-06T13:56:32.215Z,100987.38
2017-12-06T13:58:58.571Z,100982.59
2017-12-06T14:01:25.696Z,100983.44
2017-12-06T14:03:52.050Z,100981.05
2017-12-06T14:06:18.492Z,100987.95
2017-12-06T14:08:45.584Z,100983.59
2017-12-06T14:11:12.174Z,100981.86
2017-12-06T14:13:39.366Z,100980.97
2017-12-06T14:16:05.802Z,100984.47
2017-12-06T14:18:32.345Z,100986.86
2017-12-06T14:20:58.851Z,100977.91
2017-12-06T14:23:25.313Z,100987.05
2017-12-06T14:25:51.746Z,100973.34
2017-12-06T14:28:18.262Z,100985.64
2017-12-06T14:30:44.642Z,100992.67
2017-12-06T14:33:11.325Z,100985.88
2017-12-06T14:35:38.277Z,100987.62
2017-12-06T14:38:04.704Z,100994.37
2017-12-06T14:40:31.167Z,101002.38
2017-12-06T14:42:57.633Z,100988.19
2017-12-06T14:45:24.782Z,101001.69
2017-12-06T14:47:51.296Z,100992.95
2017-12-06T14:50:17.745Z,100992.55
2017-12-06T14:52:44.074Z,100996.60
2017-12-06T14:55:10.420Z,100998.56
2017-12-06T14:57:36.859Z,101002.27
2017-12-06T15:00:03.208Z,101002.24
2017-12-06T15:02:29.592Z,100997.66
2017-12-06T15:04:56.064Z,100994.80
2017-12-06T15:07:22.685Z,100990.44
2017-12-06T15:09:49.246Z,100993.87
2017-12-06T15:12:15.792Z,100997.30
2017-12-06T15:14:43.120Z,100992.38
2017-12-06T15:17:09.861Z,100988.34
2017-12-06T15:19:36.473Z,100992.36
2017-12-06T15:22:02.937Z,100993.63
2017-12-06T15:24:30.241Z,100989.91
2017-12-06T15:26:56.598Z,100989.74
2017-12-06T15:29:22.943Z,100993.05
2017-12-06T15:31:49.272Z,100990.66
2017-12-06T15:34:15.623Z,100980.16
2017-12-06T15:36:42.062Z,100977.61
2017-12-06T15:39:08.472Z,100961.39
2017-12-06T15:41:35.644Z,100987.82
2017-12-06T15:44:02.150Z,100982.47
2017-12-06T15:46:28.548Z,100991.50
2017-12-06T15:48:55.478Z,100985.74
2017-12-06T15:51:21.792Z,100974.78
2017-12-06T15:53:48.214Z,100972.20
2017-12-06T15:56:14.572Z,100980.90
2017-12-06T15:58:40.930Z,100981.31
2017-12-06T16:01:07.324Z,100973.09
2017-12-06T16:03:35.328Z,100978.56
2017-12-06T16:06:01.711Z,100981.89
2017-12-06T16:08:28.109Z,100983.20
2017-12-06T16:10:55.257Z,100974.43
2017-12-06T16:13:21.833Z,100978.21
2017-12-06T16:15:48.226Z,100973.03
2017-12-06T16:18:15.536Z,100964.24
2017-12-06T16:20:42.010Z,100969.31
2017-12-06T16:23:08.515Z,100965.36
2017-12-06T16:25:34.880Z,100968.82
2017-12-06T16:28:01.548Z,100969.89
2017-12-06T16:30:27.951Z,100969.14
2017-12-06T16:32:54.420Z,100980.61
2017-12-06T16:35:39.252Z,100970.30
2017-12-06T16:38:05.755Z,100978.67
2017-12-06T16:40:32.250Z,100970.97
2017-12-06T16:42:58.723Z,100971.38
2017-12-06T16:45:25.803Z,100978.97
2017-12-06T16:47:52.198Z,100969.55
2017-12-06T16:50:18.611Z,100964.27
2017-12-06T16:52:44.976Z,100963.59
2017-12-06T16:55:11.459Z,100967.69
2017-12-06T16:57:37.909Z,100951.45
2017-12-06T17:00:04.265Z,100966.30
2017-12-06T17:02:31.389Z,100970.03
2017-12-06T17:04:57.750Z,100974.86
2017-12-06T17:07:24.116Z,100970.88
2017-12-06T17:09:50.550Z,100968.27
2017-12-06T17:12:17.086Z,100969.97
2017-12-06T17:14:48.229Z,100964.52
2017-12-06T17:17:14.661Z,100968.66
2017-12-06T17:19:41.029Z,100971.31
2017-12-06T17:22:07.473Z,100973.17
2017-12-06T17:24:34.621Z,100963.33
2017-12-06T17:27:01.788Z,100962.70
2017-12-06T17:29:46.709Z,100963.55
2017-12-06T17:32:13.232Z,100968.98
2017-12-06T17:34:40.185Z,100971.88
2017-12-06T17:37:06.543Z,100967.05
2017-12-06T17:39:32.969Z,100954.30
2017-12-06T17:42:00.095Z,100964.81
2017-12-06T17:44:26.589Z,100953.57
2017-12-06T17:46:53.681Z,100949.66
2017-12-06T17:49:20.016Z,100951.69
2017-12-06T17:51:46.485Z,100957.12
2017-12-06T17:54:14.650Z,100945.81
2017-12-06T17:56:41.882Z,100954.48
2017-12-06T17:59:08.300Z,100951.41
2017-12-06T18:01:34.836Z,100948.02
2017-12-06T18:04:01.367Z,100953.53
2017-12-06T18:06:27.834Z,100948.89
2017-12-06T18:08:54.154Z,100954.00
2017-12-06T18:11:20.564Z,100953.98
2017-12-06T18:13:47.023Z,100958.95
2017-12-06T18:16:13.360Z,100956.62
2017-12-06T18:18:39.821Z,100953.05
2017-12-06T18:21:06.383Z,100952.57
2017-12-06T18:23:33.461Z,100942.95
2017-12-06T18:26:00.595Z,100944.70
2017-12-06T18:28:26.974Z,100951.81
2017-12-06T18:30:53.306Z,100945.64
2017-12-06T18:33:20.622Z,100941.02
2017-12-06T18:35:46.977Z,100947.98
2017-12-06T18:38:14.463Z,100946.59
2017-12-06T18:40:40.960Z,100942.13
2017-12-06T18:43:07.371Z,100931.09
2017-12-06T18:45:33.802Z,100928.81
2017-12-06T18:48:00.154Z,100911.30
2017-12-06T18:50:26.522Z,100915.56
2017-12-06T18:52:53.722Z,100911.78
2017-12-06T18:55:20.134Z,100911.84
2017-12-06T18:57:46.582Z,100921.03
2017-12-06T19:00:13.009Z,100917.97
2017-12-06T19:02:40.267Z,100925.94
2017-12-06T19:05:06.657Z,100916.55
2017-12-06T19:07:33.104Z,100922.76
2017-12-06T19:09:59.527Z,100920.42
2017-12-06T19:12:25.932Z,100928.13
2017-12-06T19:14:52.576Z,100924.06
2017-12-06T19:17:19.514Z,100938.65
2017-12-06T19:19:46.087Z,100935.47
2017-12-06T19:22:12.662Z,100918.94
2017-12-06T19:24:39.009Z,100920.05
2017-12-06T19:27:05.458Z,100922.70
2017-12-06T19:29:31.810Z,100921.34
2017-12-06T19:31:58.311Z,100937.11
2017-12-06T19:34:24.744Z,100927.56
2017-12-06T19:36:51.219Z,100938.39
2017-12-06T19:39:19.948Z,100930.94
2017-12-06T19:41:47.214Z,100932.99
2017-12-06T19:44:13.618Z,100934.78
2017-12-06T19:46:40.874Z,100926.83
2017-12-06T19:49:07.311Z,100916.69
2017-12-06T19:51:34.687Z,100932.77
2017-12-06T19:54:01.297Z,100932.06
2017-12-06T19:56:28.483Z,100929.48
2017-12-06T19:58:55.005Z,100930.11
2017-12-06T20:01:23.960Z,100932.00
2017-12-06T20:03:51.094Z,100931.22
2017-12-06T20:06:17.482Z,100935.33
2017-12-06T20:08:43.928Z,100926.17
2017-12-06T20:11:11.589Z,100933.59
2017-12-06T20:13:38.982Z,100928.42
2017-12-06T20:16:05.595Z,100930.73
2017-12-06T20:18:32.178Z,100929.83
2017-12-06T20:21:00.561Z,100932.96
2017-12-06T20:23:27.721Z,100931.97
2017-12-06T20:25:54.431Z,100934.02
2017-12-06T20:28:20.927Z,100939.33
2017-12-06T20:30:47.691Z,100932.28
2017-12-06T20:33:14.322Z,100922.09
2017-12-06T20:35:40.740Z,100931.97
2017-12-06T20:38:07.558Z,100926.80
2017-12-06T20:40:33.940Z,100923.50
2017-12-06T20:43:00.278Z,100930.74
2017-12-06T20:45:26.722Z,100934.59
2017-12-06T20:47:53.094Z,100923.86
2017-12-06T20:50:19.416Z,100925.10
2017-12-06T20:52:45.871Z,100913.81
2017-12-06T20:55:12.401Z,100917.44
2017-12-06T20:57:38.710Z,100911.66
2017-12-06T21:00:05.840Z,100917.45
2017-12-06T21:02:32.779Z,100902.94
2017-12-06T21:05:00.404Z,100903.26
2017-12-06T21:07:26.912Z,100896.52
2017-12-06T21:09:53.361Z,100889.14
2017-12-06T21:12:19.772Z,100902.38
2017-12-06T21:14:46.629Z,100902.28
2017-12-06T21:17:12.938Z,100894.80
2017-12-06T21:19:39.766Z,100899.23
2017-12-06T21:22:06.404Z,100890.91
2017-12-06T21:24:34.583Z,100889.32
2017-12-06T21:27:02.078Z,100890.98
2017-12-06T21:29:29.878Z,100885.23
2017-12-06T21:31:56.508Z,100886.45
2017-12-06T21:34:23.222Z,100878.87
2017-12-06T21:36:49.537Z,100881.09
2017-12-06T21:39:17.261Z,100877.83
2017-12-06T21:41:43.625Z,100874.98
2017-12-06T21:44:10.689Z,100875.94
2017-12-06T21:46:37.109Z,100881.65
2017-12-06T21:49:04.277Z,100883.88
2017-12-06T21:51:30.783Z,100872.19
2017-12-06T21:53:57.213Z,100869.51
2017-12-06T21:56:23.751Z,100875.66
2017-12-06T21:58:50.936Z,100869.60
2017-12-06T22:01:17.418Z,100872.12
2017-12-06T22:03:43.972Z,100869.38
2017-12-06T22:06:10.524Z,100875.06
2017-12-06T22:08:37.693Z,100868.41
2017-12-06T22:11:04.030Z,100867.55
2017-12-06T22:13:30.456Z,100864.45
2017-12-06T22:15:56.874Z,100868.44
2017-12-06T22:18:23.976Z,100862.80
2017-12-06T22:20:50.323Z,100856.01
2017-12-06T22:23:17.621Z,100853.33
2017-12-06T22:25:43.987Z,100867.30
2017-12-06T22:28:10.356Z,100858.16
2017-12-06T22:30:37.413Z,100860.41
2017-12-06T22:33:04.753Z,100860.84
2017-12-06T22:35:31.153Z,100859.69
2017-12-06T22:37:57.518Z,100858.92
2017-12-06T22:40:23.832Z,100855.11
2017-12-06T22:42:50.143Z,100855.25
2017-12-06T22:45:17.427Z,100850.53
2017-12-06T22:47:43.735Z,100845.50
2017-12-06T22:50:10.290Z,100849.78
2017-12-06T22:52:36.690Z,100851.89
2017-12-06T22:55:03.096Z,100846.52
2017-12-06T22:57:29.460Z,100848.77
2017-12-06T22:59:55.841Z,100849.09
2017-12-06T23:02:22.224Z,100842.41
2017-12-06T23:04:48.816Z,100838.30
2017-12-06T23:07:15.908Z,100833.23
2017-12-06T23:09:42.239Z,100836.31
2017-12-06T23:12:08.692Z,100829.55
2017-12-06T23:14:35.185Z,100832.91
2017-12-06T23:17:01.578Z,100828.84
2017-12-06T23:19:28.697Z,100821.08
2017-12-06T23:21:55.489Z,100818.77
2017-12-06T23:24:21.901Z,100822.84
2017-12-06T23:26:48.265Z,100821.70
2017-12-06T23:29:14.739Z,100814.70
2017-12-06T23:31:41.137Z,100813.05
2017-12-06T23:34:07.502Z,100811.83
2017-12-06T23:36:33.877Z,100810.41
2017-12-06T23:39:01.290Z,100817.12
2017-12-06T23:41:27.621Z,100802.52
2017-12-06T23:43:54.959Z,100804.38
2017-12-06T23:46:22.284Z,100804.49
2017-12-06T23:48:48.624Z,100795.32
2017-12-06T23:51:15.128Z,100787.30
2017-12-06T23:53:41.484Z,100791.59
2017-12-06T23:56:08.092Z,100779.53
2017-12-06T23:58:34.425Z,100785.19
